sensor_id;sensor_type;location;lat;lon;timestamp;P1;durP1;ratioP1;P2;durP2;ratioP2
37855;SDS011;23694;43.274;26.924;2022-11-18T00:01:33;4.60;;;2.67;;
37855;SDS011;23694;43.274;26.924;2022-11-18T00:03:59;3.90;;;3.30;;
37855;SDS011;23694;43.274;26.924;2022-11-18T00:06:26;3.50;;;2.90;;
37855;SDS011;23694;43.274;26.924;2022-11-18T00:08:53;4.37;;;3.43;;
37855;SDS011;23694;43.274;26.924;2022-11-18T00:11:21;5.27;;;3.80;;
37855;SDS011;23694;43.274;26.924;2022-11-18T00:14:11;5.50;;;3.93;;
37855;SDS011;23694;43.274;26.924;2022-11-18T00:16:58;5.90;;;3.60;;
37855;SDS011;23694;43.274;26.924;2022-11-18T00:19:26;6.83;;;4.20;;
37855;SDS011;23694;43.274;26.924;2022-11-18T00:21:54;6.13;;;4.37;;
37855;SDS011;23694;43.274;26.924;2022-11-18T00:24:21;5.23;;;3.83;;
37855;SDS011;23694;43.274;26.924;2022-11-18T00:26:48;4.53;;;3.60;;
37855;SDS011;23694;43.274;26.924;2022-11-18T00:29:14;4.03;;;3.23;;
37855;SDS011;23694;43.274;26.924;2022-11-18T00:31:41;3.53;;;2.80;;
37855;SDS011;23694;43.274;26.924;2022-11-18T00:34:09;4.47;;;3.00;;
37855;SDS011;23694;43.274;26.924;2022-11-18T00:36:41;6.33;;;3.33;;
37855;SDS011;23694;43.274;26.924;2022-11-18T00:39:09;4.17;;;3.40;;
37855;SDS011;23694;43.274;26.924;2022-11-18T00:41:36;3.70;;;2.83;;
37855;SDS011;23694;43.274;26.924;2022-11-18T00:44:21;4.07;;;3.30;;
37855;SDS011;23694;43.274;26.924;2022-11-18T00:46:55;4.30;;;3.40;;
37855;SDS011;23694;43.274;26.924;2022-11-18T00:49:22;5.93;;;2.80;;
37855;SDS011;23694;43.274;26.924;2022-11-18T00:51:48;3.50;;;2.47;;
37855;SDS011;23694;43.274;26.924;2022-11-18T00:54:14;4.77;;;2.57;;
37855;SDS011;23694;43.274;26.924;2022-11-18T00:56:41;3.07;;;2.77;;
37855;SDS011;23694;43.274;26.924;2022-11-18T00:59:07;3.23;;;2.70;;
37855;SDS011;23694;43.274;26.924;2022-11-18T01:01:33;4.00;;;3.13;;
37855;SDS011;23694;43.274;26.924;2022-11-18T01:04:08;5.30;;;3.77;;
37855;SDS011;23694;43.274;26.924;2022-11-18T01:06:34;4.80;;;3.40;;
37855;SDS011;23694;43.274;26.924;2022-11-18T01:09:00;4.03;;;3.10;;
37855;SDS011;23694;43.274;26.924;2022-11-18T01:11:26;4.00;;;3.00;;
37855;SDS011;23694;43.274;26.924;2022-11-18T01:14:10;6.43;;;3.90;;
37855;SDS011;23694;43.274;26.924;2022-11-18T01:16:36;4.63;;;3.47;;
37855;SDS011;23694;43.274;26.924;2022-11-18T01:19:02;4.73;;;3.10;;
37855;SDS011;23694;43.274;26.924;2022-11-18T01:21:28;4.77;;;3.13;;
37855;SDS011;23694;43.274;26.924;2022-11-18T01:23:54;3.43;;;2.90;;
37855;SDS011;23694;43.274;26.924;2022-11-18T01:26:21;3.53;;;2.97;;
37855;SDS011;23694;43.274;26.924;2022-11-18T01:28:47;4.53;;;3.50;;
37855;SDS011;23694;43.274;26.924;2022-11-18T01:31:14;4.87;;;2.90;;
37855;SDS011;23694;43.274;26.924;2022-11-18T01:33:43;3.97;;;3.10;;
37855;SDS011;23694;43.274;26.924;2022-11-18T01:36:17;3.87;;;3.17;;
37855;SDS011;23694;43.274;26.924;2022-11-18T01:38:49;4.40;;;3.17;;
37855;SDS011;23694;43.274;26.924;2022-11-18T01:41:16;4.17;;;3.40;;
37855;SDS011;23694;43.274;26.924;2022-11-18T01:43:51;5.33;;;3.33;;
37855;SDS011;23694;43.274;26.924;2022-11-18T01:46:17;3.93;;;2.90;;
37855;SDS011;23694;43.274;26.924;2022-11-18T01:48:44;4.77;;;3.10;;
37855;SDS011;23694;43.274;26.924;2022-11-18T01:51:14;4.90;;;3.07;;
37855;SDS011;23694;43.274;26.924;2022-11-18T01:53:47;6.00;;;3.40;;
37855;SDS011;23694;43.274;26.924;2022-11-18T01:56:18;4.50;;;3.03;;
37855;SDS011;23694;43.274;26.924;2022-11-18T01:58:52;5.00;;;2.90;;
37855;SDS011;23694;43.274;26.924;2022-11-18T02:01:22;3.37;;;3.07;;
37855;SDS011;23694;43.274;26.924;2022-11-18T02:03:48;6.57;;;3.83;;
37855;SDS011;23694;43.274;26.924;2022-11-18T02:06:15;5.83;;;3.80;;
37855;SDS011;23694;43.274;26.924;2022-11-18T02:08:42;7.60;;;3.77;;
37855;SDS011;23694;43.274;26.924;2022-11-18T02:11:10;6.50;;;3.83;;
37855;SDS011;23694;43.274;26.924;2022-11-18T02:13:58;6.13;;;4.00;;
37855;SDS011;23694;43.274;26.924;2022-11-18T02:16:42;5.23;;;4.10;;
37855;SDS011;23694;43.274;26.924;2022-11-18T02:30:19;6.40;;;4.37;;
37855;SDS011;23694;43.274;26.924;2022-11-18T02:35:20;6.53;;;4.85;;
37855;SDS011;23694;43.274;26.924;2022-11-18T02:38:09;7.20;;;5.00;;
37855;SDS011;23694;43.274;26.924;2022-11-18T02:40:41;6.10;;;5.00;;
37855;SDS011;23694;43.274;26.924;2022-11-18T02:43:14;9.77;;;5.13;;
37855;SDS011;23694;43.274;26.924;2022-11-18T02:45:45;7.87;;;5.30;;
37855;SDS011;23694;43.274;26.924;2022-11-18T02:48:15;7.03;;;5.13;;
37855;SDS011;23694;43.274;26.924;2022-11-18T02:50:42;7.53;;;5.37;;
37855;SDS011;23694;43.274;26.924;2022-11-18T02:53:11;7.43;;;5.20;;
37855;SDS011;23694;43.274;26.924;2022-11-18T02:55:40;7.63;;;5.70;;
37855;SDS011;23694;43.274;26.924;2022-11-18T02:58:08;8.90;;;4.80;;
37855;SDS011;23694;43.274;26.924;2022-11-18T03:00:37;8.60;;;5.40;;
37855;SDS011;23694;43.274;26.924;2022-11-18T03:08:45;20.17;;;10.80;;
37855;SDS011;23694;43.274;26.924;2022-11-18T03:11:35;15.60;;;10.33;;
37855;SDS011;23694;43.274;26.924;2022-11-18T03:17:09;17.53;;;10.90;;
37855;SDS011;23694;43.274;26.924;2022-11-18T03:22:43;13.47;;;7.67;;
37855;SDS011;23694;43.274;26.924;2022-11-18T03:28:05;14.57;;;8.17;;
37855;SDS011;23694;43.274;26.924;2022-11-18T03:30:37;20.00;;;12.40;;
37855;SDS011;23694;43.274;26.924;2022-11-18T03:33:09;25.17;;;14.43;;
37855;SDS011;23694;43.274;26.924;2022-11-18T03:35:40;18.50;;;11.83;;
37855;SDS011;23694;43.274;26.924;2022-11-18T03:38:11;19.67;;;11.43;;
37855;SDS011;23694;43.274;26.924;2022-11-18T03:40:44;18.63;;;9.70;;
37855;SDS011;23694;43.274;26.924;2022-11-18T03:43:17;14.18;;;9.40;;
37855;SDS011;23694;43.274;26.924;2022-11-18T03:45:59;17.23;;;9.13;;
37855;SDS011;23694;43.274;26.924;2022-11-18T03:48:33;13.00;;;9.00;;
37855;SDS011;23694;43.274;26.924;2022-11-18T03:51:08;14.60;;;8.47;;
37855;SDS011;23694;43.274;26.924;2022-11-18T03:53:41;9.80;;;7.30;;
37855;SDS011;23694;43.274;26.924;2022-11-18T03:56:17;12.03;;;8.17;;
37855;SDS011;23694;43.274;26.924;2022-11-18T04:01:28;12.57;;;8.53;;
37855;SDS011;23694;43.274;26.924;2022-11-18T04:04:00;13.27;;;8.50;;
37855;SDS011;23694;43.274;26.924;2022-11-18T04:06:36;13.40;;;7.80;;
37855;SDS011;23694;43.274;26.924;2022-11-18T04:09:05;20.67;;;8.30;;
37855;SDS011;23694;43.274;26.924;2022-11-18T04:11:54;9.90;;;7.20;;
37855;SDS011;23694;43.274;26.924;2022-11-18T04:14:37;11.23;;;6.43;;
37855;SDS011;23694;43.274;26.924;2022-11-18T04:17:07;8.07;;;5.70;;
37855;SDS011;23694;43.274;26.924;2022-11-18T04:19:35;7.43;;;5.00;;
37855;SDS011;23694;43.274;26.924;2022-11-18T04:22:02;9.13;;;5.40;;
37855;SDS011;23694;43.274;26.924;2022-11-18T04:24:28;9.13;;;5.93;;
37855;SDS011;23694;43.274;26.924;2022-11-18T04:26:54;11.00;;;6.47;;
37855;SDS011;23694;43.274;26.924;2022-11-18T04:29:20;9.70;;;6.27;;
37855;SDS011;23694;43.274;26.924;2022-11-18T04:31:47;7.83;;;4.97;;
37855;SDS011;23694;43.274;26.924;2022-11-18T04:34:13;8.13;;;5.57;;
37855;SDS011;23694;43.274;26.924;2022-11-18T04:36:39;12.43;;;6.53;;
37855;SDS011;23694;43.274;26.924;2022-11-18T04:39:05;13.93;;;8.87;;
37855;SDS011;23694;43.274;26.924;2022-11-18T04:41:31;15.13;;;10.03;;
37855;SDS011;23694;43.274;26.924;2022-11-18T04:44:15;16.60;;;11.63;;
37855;SDS011;23694;43.274;26.924;2022-11-18T04:46:42;15.27;;;10.97;;
37855;SDS011;23694;43.274;26.924;2022-11-18T04:49:09;19.87;;;11.30;;
37855;SDS011;23694;43.274;26.924;2022-11-18T04:51:37;22.07;;;11.43;;
37855;SDS011;23694;43.274;26.924;2022-11-18T04:54:05;18.83;;;10.47;;
37855;SDS011;23694;43.274;26.924;2022-11-18T04:56:31;13.87;;;9.17;;
37855;SDS011;23694;43.274;26.924;2022-11-18T04:58:58;16.50;;;9.33;;
37855;SDS011;23694;43.274;26.924;2022-11-18T05:01:25;19.10;;;9.70;;
37855;SDS011;23694;43.274;26.924;2022-11-18T05:03:52;20.97;;;12.73;;
37855;SDS011;23694;43.274;26.924;2022-11-18T05:06:18;22.73;;;14.30;;
37855;SDS011;23694;43.274;26.924;2022-11-18T05:08:44;20.73;;;12.57;;
37855;SDS011;23694;43.274;26.924;2022-11-18T05:11:10;16.27;;;10.83;;
37855;SDS011;23694;43.274;26.924;2022-11-18T05:13:55;14.40;;;9.43;;
37855;SDS011;23694;43.274;26.924;2022-11-18T05:16:21;19.30;;;9.87;;
37855;SDS011;23694;43.274;26.924;2022-11-18T05:18:47;18.30;;;9.60;;
37855;SDS011;23694;43.274;26.924;2022-11-18T05:21:13;21.67;;;9.97;;
37855;SDS011;23694;43.274;26.924;2022-11-18T05:23:39;17.87;;;8.60;;
37855;SDS011;23694;43.274;26.924;2022-11-18T05:26:06;15.30;;;7.60;;
37855;SDS011;23694;43.274;26.924;2022-11-18T05:28:38;11.30;;;6.30;;
37855;SDS011;23694;43.274;26.924;2022-11-18T05:31:05;16.73;;;7.83;;
37855;SDS011;23694;43.274;26.924;2022-11-18T05:33:35;22.73;;;9.07;;
37855;SDS011;23694;43.274;26.924;2022-11-18T05:36:08;23.70;;;9.50;;
37855;SDS011;23694;43.274;26.924;2022-11-18T05:38:36;27.67;;;11.07;;
37855;SDS011;23694;43.274;26.924;2022-11-18T05:41:02;28.57;;;11.17;;
37855;SDS011;23694;43.274;26.924;2022-11-18T05:43:29;23.23;;;9.63;;
37855;SDS011;23694;43.274;26.924;2022-11-18T05:45:56;11.50;;;4.90;;
37855;SDS011;23694;43.274;26.924;2022-11-18T05:48:23;10.67;;;4.90;;
37855;SDS011;23694;43.274;26.924;2022-11-18T05:50:50;11.63;;;5.27;;
37855;SDS011;23694;43.274;26.924;2022-11-18T05:53:23;7.90;;;4.30;;
37855;SDS011;23694;43.274;26.924;2022-11-18T05:58:18;11.10;;;5.87;;
37855;SDS011;23694;43.274;26.924;2022-11-18T06:00:44;15.33;;;8.73;;
37855;SDS011;23694;43.274;26.924;2022-11-18T06:03:16;15.13;;;10.07;;
37855;SDS011;23694;43.274;26.924;2022-11-18T06:05:46;24.30;;;11.13;;
37855;SDS011;23694;43.274;26.924;2022-11-18T06:08:13;27.97;;;14.10;;
37855;SDS011;23694;43.274;26.924;2022-11-18T06:10:42;41.63;;;23.77;;
37855;SDS011;23694;43.274;26.924;2022-11-18T06:13:13;55.67;;;30.60;;
37855;SDS011;23694;43.274;26.924;2022-11-18T06:15:50;77.13;;;48.50;;
37855;SDS011;23694;43.274;26.924;2022-11-18T06:20:50;43.00;;;19.63;;
37855;SDS011;23694;43.274;26.924;2022-11-18T06:23:20;30.83;;;17.33;;
37855;SDS011;23694;43.274;26.924;2022-11-18T06:25:46;26.67;;;13.10;;
37855;SDS011;23694;43.274;26.924;2022-11-18T06:28:13;34.70;;;23.50;;
37855;SDS011;23694;43.274;26.924;2022-11-18T06:30:41;26.07;;;13.63;;
37855;SDS011;23694;43.274;26.924;2022-11-18T06:33:07;27.23;;;13.10;;
37855;SDS011;23694;43.274;26.924;2022-11-18T06:35:34;23.45;;;12.55;;
37855;SDS011;23694;43.274;26.924;2022-11-18T06:38:00;27.03;;;15.63;;
37855;SDS011;23694;43.274;26.924;2022-11-18T06:40:26;29.15;;;14.90;;
37855;SDS011;23694;43.274;26.924;2022-11-18T06:42:52;45.90;;;28.30;;
37855;SDS011;23694;43.274;26.924;2022-11-18T06:45:36;33.03;;;22.02;;
37855;SDS011;23694;43.274;26.924;2022-11-18T06:48:02;34.72;;;18.38;;
37855;SDS011;23694;43.274;26.924;2022-11-18T06:50:29;28.65;;;14.30;;
37855;SDS011;23694;43.274;26.924;2022-11-18T06:52:58;28.15;;;16.70;;
37855;SDS011;23694;43.274;26.924;2022-11-18T06:55:25;30.10;;;16.38;;
37855;SDS011;23694;43.274;26.924;2022-11-18T06:57:51;32.25;;;19.40;;
37855;SDS011;23694;43.274;26.924;2022-11-18T07:00:17;21.90;;;13.05;;
37855;SDS011;23694;43.274;26.924;2022-11-18T07:02:43;21.50;;;12.25;;
37855;SDS011;23694;43.274;26.924;2022-11-18T07:05:09;22.27;;;13.88;;
37855;SDS011;23694;43.274;26.924;2022-11-18T07:07:35;23.23;;;14.32;;
37855;SDS011;23694;43.274;26.924;2022-11-18T07:10:01;27.65;;;17.27;;
37855;SDS011;23694;43.274;26.924;2022-11-18T07:12:28;27.15;;;16.55;;
37855;SDS011;23694;43.274;26.924;2022-11-18T07:14:54;24.38;;;14.65;;
37855;SDS011;23694;43.274;26.924;2022-11-18T07:17:20;30.70;;;14.23;;
37855;SDS011;23694;43.274;26.924;2022-11-18T07:19:46;25.83;;;13.75;;
37855;SDS011;23694;43.274;26.924;2022-11-18T07:22:12;28.35;;;16.63;;
37855;SDS011;23694;43.274;26.924;2022-11-18T07:24:38;25.55;;;14.88;;
37855;SDS011;23694;43.274;26.924;2022-11-18T07:27:05;24.67;;;12.88;;
37855;SDS011;23694;43.274;26.924;2022-11-18T07:29:31;17.30;;;9.77;;
37855;SDS011;23694;43.274;26.924;2022-11-18T07:31:59;27.73;;;11.82;;
37855;SDS011;23694;43.274;26.924;2022-11-18T07:34:25;19.73;;;10.60;;
37855;SDS011;23694;43.274;26.924;2022-11-18T07:36:51;18.45;;;10.73;;
37855;SDS011;23694;43.274;26.924;2022-11-18T07:39:17;40.10;;;21.10;;
37855;SDS011;23694;43.274;26.924;2022-11-18T07:41:43;36.92;;;26.60;;
37855;SDS011;23694;43.274;26.924;2022-11-18T07:44:10;21.63;;;12.43;;
37855;SDS011;23694;43.274;26.924;2022-11-18T07:46:36;21.80;;;9.75;;
37855;SDS011;23694;43.274;26.924;2022-11-18T07:49:03;18.95;;;9.38;;
37855;SDS011;23694;43.274;26.924;2022-11-18T07:51:32;13.98;;;7.75;;
37855;SDS011;23694;43.274;26.924;2022-11-18T07:54:00;14.63;;;8.30;;
37855;SDS011;23694;43.274;26.924;2022-11-18T07:56:29;20.23;;;8.07;;
37855;SDS011;23694;43.274;26.924;2022-11-18T07:58:55;13.73;;;6.32;;
37855;SDS011;23694;43.274;26.924;2022-11-18T08:01:22;17.75;;;7.28;;
37855;SDS011;23694;43.274;26.924;2022-11-18T08:03:49;19.45;;;7.43;;
37855;SDS011;23694;43.274;26.924;2022-11-18T08:06:16;17.83;;;6.70;;
37855;SDS011;23694;43.274;26.924;2022-11-18T08:08:43;17.73;;;7.53;;
37855;SDS011;23694;43.274;26.924;2022-11-18T08:11:11;14.03;;;6.30;;
37855;SDS011;23694;43.274;26.924;2022-11-18T08:13:39;15.97;;;8.67;;
37855;SDS011;23694;43.274;26.924;2022-11-18T08:16:10;12.80;;;6.50;;
37855;SDS011;23694;43.274;26.924;2022-11-18T08:18:42;14.17;;;6.47;;
37855;SDS011;23694;43.274;26.924;2022-11-18T08:21:14;14.87;;;7.40;;
37855;SDS011;23694;43.274;26.924;2022-11-18T08:23:42;17.17;;;7.50;;
37855;SDS011;23694;43.274;26.924;2022-11-18T08:26:09;20.90;;;6.93;;
37855;SDS011;23694;43.274;26.924;2022-11-18T08:28:37;16.00;;;7.67;;
37855;SDS011;23694;43.274;26.924;2022-11-18T08:31:08;20.37;;;8.30;;
37855;SDS011;23694;43.274;26.924;2022-11-18T08:33:41;18.13;;;8.60;;
37855;SDS011;23694;43.274;26.924;2022-11-18T08:36:18;15.23;;;6.47;;
37855;SDS011;23694;43.274;26.924;2022-11-18T08:38:47;12.47;;;5.53;;
37855;SDS011;23694;43.274;26.924;2022-11-18T08:41:13;12.47;;;5.27;;
37855;SDS011;23694;43.274;26.924;2022-11-18T08:43:41;14.33;;;5.50;;
37855;SDS011;23694;43.274;26.924;2022-11-18T08:46:10;11.37;;;5.33;;
37855;SDS011;23694;43.274;26.924;2022-11-18T08:48:37;13.30;;;5.07;;
37855;SDS011;23694;43.274;26.924;2022-11-18T08:51:03;13.17;;;5.30;;
37855;SDS011;23694;43.274;26.924;2022-11-18T08:53:29;11.17;;;4.63;;
37855;SDS011;23694;43.274;26.924;2022-11-18T08:55:56;9.40;;;5.07;;
37855;SDS011;23694;43.274;26.924;2022-11-18T08:58:23;15.43;;;5.47;;
37855;SDS011;23694;43.274;26.924;2022-11-18T09:00:50;12.17;;;5.33;;
37855;SDS011;23694;43.274;26.924;2022-11-18T09:03:16;13.13;;;5.30;;
37855;SDS011;23694;43.274;26.924;2022-11-18T09:05:42;15.97;;;5.00;;
37855;SDS011;23694;43.274;26.924;2022-11-18T09:08:08;12.67;;;4.83;;
37855;SDS011;23694;43.274;26.924;2022-11-18T09:10:35;13.53;;;5.50;;
37855;SDS011;23694;43.274;26.924;2022-11-18T09:13:02;11.40;;;5.07;;
37855;SDS011;23694;43.274;26.924;2022-11-18T09:15:29;15.90;;;4.50;;
37855;SDS011;23694;43.274;26.924;2022-11-18T09:17:55;9.67;;;4.70;;
37855;SDS011;23694;43.274;26.924;2022-11-18T09:20:22;13.40;;;4.97;;
37855;SDS011;23694;43.274;26.924;2022-11-18T09:22:49;12.97;;;5.10;;
37855;SDS011;23694;43.274;26.924;2022-11-18T09:25:15;13.17;;;4.90;;
37855;SDS011;23694;43.274;26.924;2022-11-18T09:27:41;7.57;;;4.30;;
37855;SDS011;23694;43.274;26.924;2022-11-18T09:30:07;11.23;;;4.43;;
37855;SDS011;23694;43.274;26.924;2022-11-18T09:32:34;7.80;;;4.03;;
37855;SDS011;23694;43.274;26.924;2022-11-18T09:35:00;10.93;;;4.70;;
37855;SDS011;23694;43.274;26.924;2022-11-18T09:37:26;13.43;;;5.00;;
37855;SDS011;23694;43.274;26.924;2022-11-18T09:39:52;7.73;;;4.23;;
37855;SDS011;23694;43.274;26.924;2022-11-18T09:42:23;14.13;;;4.83;;
37855;SDS011;23694;43.274;26.924;2022-11-18T09:47:58;9.37;;;4.80;;
37855;SDS011;23694;43.274;26.924;2022-11-18T09:50:27;8.83;;;4.57;;
37855;SDS011;23694;43.274;26.924;2022-11-18T09:55:31;9.03;;;4.70;;
37855;SDS011;23694;43.274;26.924;2022-11-18T09:58:01;6.23;;;4.00;;
37855;SDS011;23694;43.274;26.924;2022-11-18T10:00:30;8.33;;;4.97;;
37855;SDS011;23694;43.274;26.924;2022-11-18T10:05:28;11.00;;;6.33;;
37855;SDS011;23694;43.274;26.924;2022-11-18T10:08:14;9.30;;;5.40;;
37855;SDS011;23694;43.274;26.924;2022-11-18T10:10:55;10.87;;;5.43;;
37855;SDS011;23694;43.274;26.924;2022-11-18T10:18:40;9.30;;;4.87;;
37855;SDS011;23694;43.274;26.924;2022-11-18T10:24:07;9.83;;;3.90;;
37855;SDS011;23694;43.274;26.924;2022-11-18T10:26:38;10.07;;;4.53;;
37855;SDS011;23694;43.274;26.924;2022-11-18T10:29:06;9.00;;;4.10;;
37855;SDS011;23694;43.274;26.924;2022-11-18T10:31:36;4.73;;;3.40;;
37855;SDS011;23694;43.274;26.924;2022-11-18T10:34:17;7.70;;;3.35;;
37855;SDS011;23694;43.274;26.924;2022-11-18T10:36:52;5.40;;;3.53;;
37855;SDS011;23694;43.274;26.924;2022-11-18T10:39:54;5.80;;;4.10;;
37855;SDS011;23694;43.274;26.924;2022-11-18T10:42:34;8.60;;;4.40;;
37855;SDS011;23694;43.274;26.924;2022-11-18T10:50:35;8.07;;;5.60;;
37855;SDS011;23694;43.274;26.924;2022-11-18T10:53:02;5.80;;;4.10;;
37855;SDS011;23694;43.274;26.924;2022-11-18T10:55:30;6.00;;;4.30;;
37855;SDS011;23694;43.274;26.924;2022-11-18T10:58:01;7.27;;;4.00;;
37855;SDS011;23694;43.274;26.924;2022-11-18T11:00:37;7.63;;;4.63;;
37855;SDS011;23694;43.274;26.924;2022-11-18T11:03:24;6.57;;;4.40;;
37855;SDS011;23694;43.274;26.924;2022-11-18T11:11:53;12.53;;;5.13;;
37855;SDS011;23694;43.274;26.924;2022-11-18T11:17:13;11.93;;;5.60;;
37855;SDS011;23694;43.274;26.924;2022-11-18T11:19:58;8.77;;;4.33;;
37855;SDS011;23694;43.274;26.924;2022-11-18T11:22:38;8.83;;;5.17;;
37855;SDS011;23694;43.274;26.924;2022-11-18T11:25:09;6.33;;;4.70;;
37855;SDS011;23694;43.274;26.924;2022-11-18T11:28:00;8.20;;;5.20;;
37855;SDS011;23694;43.274;26.924;2022-11-18T11:33:30;9.27;;;5.00;;
37855;SDS011;23694;43.274;26.924;2022-11-18T11:47:19;11.35;;;4.90;;
37855;SDS011;23694;43.274;26.924;2022-11-18T11:59:15;7.23;;;3.80;;
37855;SDS011;23694;43.274;26.924;2022-11-18T12:02:18;12.20;;;4.70;;
37855;SDS011;23694;43.274;26.924;2022-11-18T12:08:01;7.50;;;3.90;;
37855;SDS011;23694;43.274;26.924;2022-11-18T12:13:42;5.60;;;3.87;;
37855;SDS011;23694;43.274;26.924;2022-11-18T12:26:42;6.70;;;4.53;;
37855;SDS011;23694;43.274;26.924;2022-11-18T12:31:45;9.67;;;6.17;;
37855;SDS011;23694;43.274;26.924;2022-11-18T12:34:17;8.87;;;6.03;;
37855;SDS011;23694;43.274;26.924;2022-11-18T12:39:56;12.23;;;7.10;;
37855;SDS011;23694;43.274;26.924;2022-11-18T12:42:34;13.67;;;6.23;;
37855;SDS011;23694;43.274;26.924;2022-11-18T12:53:43;8.30;;;4.80;;
37855;SDS011;23694;43.274;26.924;2022-11-18T12:58:43;12.67;;;4.50;;
37855;SDS011;23694;43.274;26.924;2022-11-18T13:01:16;8.20;;;4.80;;
37855;SDS011;23694;43.274;26.924;2022-11-18T13:03:44;7.27;;;4.40;;
37855;SDS011;23694;43.274;26.924;2022-11-18T13:06:13;9.83;;;4.77;;
37855;SDS011;23694;43.274;26.924;2022-11-18T13:09:03;7.95;;;4.70;;
37855;SDS011;23694;43.274;26.924;2022-11-18T13:11:43;10.77;;;4.80;;
37855;SDS011;23694;43.274;26.924;2022-11-18T13:17:31;5.33;;;3.67;;
37855;SDS011;23694;43.274;26.924;2022-11-18T13:22:52;6.37;;;4.30;;
37855;SDS011;23694;43.274;26.924;2022-11-18T13:25:40;8.73;;;4.47;;
37855;SDS011;23694;43.274;26.924;2022-11-18T13:28:31;10.63;;;5.10;;
37855;SDS011;23694;43.274;26.924;2022-11-18T13:31:16;8.67;;;4.80;;
37855;SDS011;23694;43.274;26.924;2022-11-18T13:36:48;9.57;;;5.17;;
37855;SDS011;23694;43.274;26.924;2022-11-18T13:39:34;8.47;;;5.53;;
37855;SDS011;23694;43.274;26.924;2022-11-18T13:42:04;11.43;;;5.50;;
37855;SDS011;23694;43.274;26.924;2022-11-18T13:44:42;11.27;;;5.33;;
37855;SDS011;23694;43.274;26.924;2022-11-18T13:49:55;9.95;;;5.10;;
37855;SDS011;23694;43.274;26.924;2022-11-18T13:52:36;9.45;;;4.97;;
37855;SDS011;23694;43.274;26.924;2022-11-18T13:55:23;10.33;;;5.53;;
37855;SDS011;23694;43.274;26.924;2022-11-18T13:57:59;8.60;;;5.13;;
37855;SDS011;23694;43.274;26.924;2022-11-18T14:00:29;9.10;;;4.37;;
37855;SDS011;23694;43.274;26.924;2022-11-18T14:03:04;8.03;;;4.83;;
37855;SDS011;23694;43.274;26.924;2022-11-18T14:05:51;8.40;;;3.80;;
37855;SDS011;23694;43.274;26.924;2022-11-18T14:08:32;7.43;;;3.70;;
37855;SDS011;23694;43.274;26.924;2022-11-18T14:11:03;8.70;;;4.73;;
37855;SDS011;23694;43.274;26.924;2022-11-18T14:13:32;7.83;;;3.70;;
37855;SDS011;23694;43.274;26.924;2022-11-18T14:16:02;6.07;;;3.43;;
37855;SDS011;23694;43.274;26.924;2022-11-18T14:18:49;5.37;;;3.23;;
37855;SDS011;23694;43.274;26.924;2022-11-18T14:21:26;9.03;;;3.57;;
37855;SDS011;23694;43.274;26.924;2022-11-18T14:23:53;5.93;;;3.20;;
37855;SDS011;23694;43.274;26.924;2022-11-18T14:26:30;6.90;;;3.90;;
37855;SDS011;23694;43.274;26.924;2022-11-18T14:29:02;8.63;;;4.13;;
37855;SDS011;23694;43.274;26.924;2022-11-18T14:32:01;7.40;;;3.43;;
37855;SDS011;23694;43.274;26.924;2022-11-18T14:34:36;12.65;;;4.05;;
37855;SDS011;23694;43.274;26.924;2022-11-18T14:37:05;7.33;;;3.87;;
37855;SDS011;23694;43.274;26.924;2022-11-18T14:39:35;8.50;;;3.97;;
37855;SDS011;23694;43.274;26.924;2022-11-18T14:42:02;12.07;;;4.63;;
37855;SDS011;23694;43.274;26.924;2022-11-18T14:44:30;11.77;;;5.60;;
37855;SDS011;23694;43.274;26.924;2022-11-18T14:47:14;10.60;;;5.40;;
37855;SDS011;23694;43.274;26.924;2022-11-18T14:49:51;12.97;;;5.67;;
37855;SDS011;23694;43.274;26.924;2022-11-18T14:52:18;17.90;;;7.53;;
37855;SDS011;23694;43.274;26.924;2022-11-18T14:54:44;15.90;;;9.13;;
37855;SDS011;23694;43.274;26.924;2022-11-18T14:57:11;18.83;;;8.50;;
37855;SDS011;23694;43.274;26.924;2022-11-18T14:59:40;17.90;;;9.83;;
37855;SDS011;23694;43.274;26.924;2022-11-18T15:02:14;18.13;;;9.17;;
37855;SDS011;23694;43.274;26.924;2022-11-18T15:04:41;29.57;;;10.87;;
37855;SDS011;23694;43.274;26.924;2022-11-18T15:07:11;17.57;;;8.73;;
37855;SDS011;23694;43.274;26.924;2022-11-18T15:09:39;18.90;;;9.20;;
37855;SDS011;23694;43.274;26.924;2022-11-18T15:12:05;18.33;;;8.60;;
37855;SDS011;23694;43.274;26.924;2022-11-18T15:14:32;18.80;;;8.90;;
37855;SDS011;23694;43.274;26.924;2022-11-18T15:17:02;14.20;;;7.70;;
37855;SDS011;23694;43.274;26.924;2022-11-18T15:19:29;12.00;;;7.20;;
37855;SDS011;23694;43.274;26.924;2022-11-18T15:21:56;10.53;;;6.03;;
37855;SDS011;23694;43.274;26.924;2022-11-18T15:24:22;7.70;;;4.43;;
37855;SDS011;23694;43.274;26.924;2022-11-18T15:26:48;7.47;;;3.90;;
37855;SDS011;23694;43.274;26.924;2022-11-18T15:29:21;7.20;;;4.33;;
37855;SDS011;23694;43.274;26.924;2022-11-18T15:31:49;12.53;;;4.93;;
37855;SDS011;23694;43.274;26.924;2022-11-18T15:34:15;9.87;;;4.50;;
37855;SDS011;23694;43.274;26.924;2022-11-18T15:36:44;7.77;;;3.87;;
37855;SDS011;23694;43.274;26.924;2022-11-18T15:39:11;10.03;;;4.50;;
37855;SDS011;23694;43.274;26.924;2022-11-18T15:41:38;12.70;;;4.67;;
37855;SDS011;23694;43.274;26.924;2022-11-18T15:44:05;8.97;;;3.90;;
37855;SDS011;23694;43.274;26.924;2022-11-18T15:46:31;9.20;;;5.77;;
37855;SDS011;23694;43.274;26.924;2022-11-18T15:48:58;11.47;;;5.13;;
37855;SDS011;23694;43.274;26.924;2022-11-18T15:51:25;9.40;;;4.03;;
37855;SDS011;23694;43.274;26.924;2022-11-18T15:53:53;8.97;;;4.73;;
37855;SDS011;23694;43.274;26.924;2022-11-18T16:03:46;9.20;;;4.60;;
37855;SDS011;23694;43.274;26.924;2022-11-18T16:06:13;11.13;;;4.73;;
37855;SDS011;23694;43.274;26.924;2022-11-18T16:08:39;11.20;;;5.43;;
37855;SDS011;23694;43.274;26.924;2022-11-18T16:11:05;12.53;;;5.20;;
37855;SDS011;23694;43.274;26.924;2022-11-18T16:13:50;10.10;;;5.50;;
37855;SDS011;23694;43.274;26.924;2022-11-18T16:16:17;14.20;;;6.70;;
37855;SDS011;23694;43.274;26.924;2022-11-18T16:18:44;13.87;;;6.43;;
37855;SDS011;23694;43.274;26.924;2022-11-18T16:21:10;9.77;;;6.53;;
37855;SDS011;23694;43.274;26.924;2022-11-18T16:23:36;15.67;;;7.27;;
37855;SDS011;23694;43.274;26.924;2022-11-18T16:26:02;14.83;;;7.87;;
37855;SDS011;23694;43.274;26.924;2022-11-18T16:28:28;18.27;;;8.00;;
37855;SDS011;23694;43.274;26.924;2022-11-18T16:30:54;13.67;;;7.07;;
37855;SDS011;23694;43.274;26.924;2022-11-18T16:33:39;12.87;;;7.33;;
37855;SDS011;23694;43.274;26.924;2022-11-18T16:36:05;15.80;;;7.50;;
37855;SDS011;23694;43.274;26.924;2022-11-18T16:38:32;16.67;;;7.70;;
37855;SDS011;23694;43.274;26.924;2022-11-18T16:40:58;14.20;;;7.47;;
37855;SDS011;23694;43.274;26.924;2022-11-18T16:43:24;12.87;;;6.10;;
37855;SDS011;23694;43.274;26.924;2022-11-18T16:45:51;12.90;;;7.33;;
37855;SDS011;23694;43.274;26.924;2022-11-18T16:48:19;11.37;;;6.20;;
37855;SDS011;23694;43.274;26.924;2022-11-18T16:50:50;15.73;;;6.97;;
37855;SDS011;23694;43.274;26.924;2022-11-18T16:53:26;11.30;;;6.53;;
37855;SDS011;23694;43.274;26.924;2022-11-18T16:55:52;12.93;;;6.90;;
37855;SDS011;23694;43.274;26.924;2022-11-18T16:58:26;11.97;;;6.80;;
37855;SDS011;23694;43.274;26.924;2022-11-18T17:00:52;14.70;;;7.20;;
37855;SDS011;23694;43.274;26.924;2022-11-18T17:03:18;14.33;;;7.67;;
37855;SDS011;23694;43.274;26.924;2022-11-18T17:05:44;14.23;;;6.83;;
37855;SDS011;23694;43.274;26.924;2022-11-18T17:08:10;16.07;;;8.00;;